sensor_id;sensor_type;location;lat;lon;timestamp;temperature;humidity
38866;DHT22;62686;48.984;8.394;2022-10-17T00:00:50;11.40;99.90
38866;DHT22;62686;48.984;8.394;2022-10-17T00:03:18;11.30;99.90
38866;DHT22;62686;48.984;8.394;2022-10-17T00:05:47;11.30;99.90
38866;DHT22;62686;48.984;8.394;2022-10-17T00:08:17;11.20;99.90
38866;DHT22;62686;48.984;8.394;2022-10-17T00:10:55;11.20;99.90
38866;DHT22;62686;48.984;8.394;2022-10-17T00:13:25;11.10;99.90
38866;DHT22;62686;48.984;8.394;2022-10-17T00:15:53;11.10;99.90
38866;DHT22;62686;48.984;8.394;2022-10-17T00:18:21;11.10;99.90
38866;DHT22;62686;48.984;8.394;2022-10-17T00:20:50;11.10;99.90
38866;DHT22;62686;48.984;8.394;2022-10-17T00:23:18;11.10;99.90
38866;DHT22;62686;48.984;8.394;2022-10-17T00:25:46;11.10;99.90
38866;DHT22;62686;48.984;8.394;2022-10-17T00:28:16;11.10;99.90
38866;DHT22;62686;48.984;8.394;2022-10-17T00:30:44;11.00;99.90
38866;DHT22;62686;48.984;8.394;2022-10-17T00:33:12;11.00;99.90
38866;DHT22;62686;48.984;8.394;2022-10-17T00:35:40;11.00;99.90
38866;DHT22;62686;48.984;8.394;2022-10-17T00:38:08;11.00;99.90
38866;DHT22;62686;48.984;8.394;2022-10-17T00:40:36;11.00;99.90
38866;DHT22;62686;48.984;8.394;2022-10-17T00:43:08;11.00;99.90
38866;DHT22;62686;48.984;8.394;2022-10-17T00:45:39;11.00;99.90
38866;DHT22;62686;48.984;8.394;2022-10-17T00:48:08;11.00;99.90
38866;DHT22;62686;48.984;8.394;2022-10-17T00:50:39;11.00;99.90
38866;DHT22;62686;48.984;8.394;2022-10-17T00:53:08;10.90;99.90
38866;DHT22;62686;48.984;8.394;2022-10-17T00:55:41;10.90;99.90
38866;DHT22;62686;48.984;8.394;2022-10-17T00:58:11;10.90;99.90
38866;DHT22;62686;48.984;8.394;2022-10-17T01:00:42;10.90;99.90
38866;DHT22;62686;48.984;8.394;2022-10-17T01:03:10;10.80;99.90
38866;DHT22;62686;48.984;8.394;2022-10-17T01:05:40;10.80;99.90
38866;DHT22;62686;48.984;8.394;2022-10-17T01:08:09;10.80;99.90
38866;DHT22;62686;48.984;8.394;2022-10-17T01:10:46;10.80;99.90
38866;DHT22;62686;48.984;8.394;2022-10-17T01:13:22;10.80;99.90
38866;DHT22;62686;48.984;8.394;2022-10-17T01:16:01;10.80;99.90
38866;DHT22;62686;48.984;8.394;2022-10-17T01:18:44;10.70;99.90
38866;DHT22;62686;48.984;8.394;2022-10-17T01:21:30;10.70;99.90
38866;DHT22;62686;48.984;8.394;2022-10-17T01:30:25;10.70;99.90
38866;DHT22;62686;48.984;8.394;2022-10-17T01:32:59;10.60;99.90
38866;DHT22;62686;48.984;8.394;2022-10-17T01:35:35;10.60;99.90
38866;DHT22;62686;48.984;8.394;2022-10-17T01:38:08;10.60;99.90
38866;DHT22;62686;48.984;8.394;2022-10-17T01:40:41;10.60;99.90
38866;DHT22;62686;48.984;8.394;2022-10-17T01:43:15;10.60;99.90
38866;DHT22;62686;48.984;8.394;2022-10-17T01:45:49;10.50;99.90
38866;DHT22;62686;48.984;8.394;2022-10-17T01:48:22;10.50;99.90
38866;DHT22;62686;48.984;8.394;2022-10-17T01:50:56;10.60;99.90
38866;DHT22;62686;48.984;8.394;2022-10-17T01:53:29;10.60;99.90
38866;DHT22;62686;48.984;8.394;2022-10-17T01:56:01;10.60;99.90
38866;DHT22;62686;48.984;8.394;2022-10-17T01:58:33;10.60;99.90
38866;DHT22;62686;48.984;8.394;2022-10-17T02:01:05;10.60;99.90
38866;DHT22;62686;48.984;8.394;2022-10-17T02:03:35;10.60;99.90
38866;DHT22;62686;48.984;8.394;2022-10-17T02:06:06;10.60;99.90
38866;DHT22;62686;48.984;8.394;2022-10-17T02:08:40;10.50;99.90
38866;DHT22;62686;48.984;8.394;2022-10-17T02:11:14;10.50;99.90
38866;DHT22;62686;48.984;8.394;2022-10-17T02:14:03;10.40;99.90
38866;DHT22;62686;48.984;8.394;2022-10-17T02:16:42;10.40;99.90
38866;DHT22;62686;48.984;8.394;2022-10-17T02:19:24;10.40;99.90
38866;DHT22;62686;48.984;8.394;2022-10-17T02:22:06;10.40;99.90
38866;DHT22;62686;48.984;8.394;2022-10-17T02:24:44;10.40;99.90
38866;DHT22;62686;48.984;8.394;2022-10-17T02:27:16;10.40;99.90
38866;DHT22;62686;48.984;8.394;2022-10-17T02:29:49;10.30;99.90
38866;DHT22;62686;48.984;8.394;2022-10-17T02:32:22;10.30;99.90
38866;DHT22;62686;48.984;8.394;2022-10-17T02:34:54;10.30;99.90
38866;DHT22;62686;48.984;8.394;2022-10-17T02:37:27;10.30;99.90
38866;DHT22;62686;48.984;8.394;2022-10-17T02:39:58;10.30;99.90
38866;DHT22;62686;48.984;8.394;2022-10-17T02:42:28;10.20;99.90
38866;DHT22;62686;48.984;8.394;2022-10-17T02:44:58;10.20;99.90
38866;DHT22;62686;48.984;8.394;2022-10-17T02:47:31;10.20;99.90
38866;DHT22;62686;48.984;8.394;2022-10-17T02:50:05;10.20;99.90
38866;DHT22;62686;48.984;8.394;2022-10-17T02:52:35;10.20;99.90
38866;DHT22;62686;48.984;8.394;2022-10-17T02:55:08;10.20;99.90
38866;DHT22;62686;48.984;8.394;2022-10-17T02:57:40;10.10;99.90
38866;DHT22;62686;48.984;8.394;2022-10-17T03:00:13;10.10;99.90
38866;DHT22;62686;48.984;8.394;2022-10-17T03:02:44;10.20;99.90
38866;DHT22;62686;48.984;8.394;2022-10-17T03:05:15;10.30;99.90
38866;DHT22;62686;48.984;8.394;2022-10-17T03:07:43;10.20;99.90
38866;DHT22;62686;48.984;8.394;2022-10-17T03:10:12;10.20;99.90
38866;DHT22;62686;48.984;8.394;2022-10-17T03:12:40;10.10;99.90
38866;DHT22;62686;48.984;8.394;2022-10-17T03:15:09;10.10;99.90
38866;DHT22;62686;48.984;8.394;2022-10-17T03:17:38;10.10;99.90
38866;DHT22;62686;48.984;8.394;2022-10-17T03:20:06;10.00;99.90
38866;DHT22;62686;48.984;8.394;2022-10-17T03:22:36;10.00;99.90
38866;DHT22;62686;48.984;8.394;2022-10-17T03:25:04;10.00;99.90
38866;DHT22;62686;48.984;8.394;2022-10-17T03:27:32;10.00;99.90
38866;DHT22;62686;48.984;8.394;2022-10-17T03:30:00;9.90;99.90
38866;DHT22;62686;48.984;8.394;2022-10-17T03:32:28;9.90;99.90
38866;DHT22;62686;48.984;8.394;2022-10-17T03:34:57;9.90;99.90
38866;DHT22;62686;48.984;8.394;2022-10-17T03:37:25;10.00;99.90
38866;DHT22;62686;48.984;8.394;2022-10-17T03:39:54;10.00;99.90
38866;DHT22;62686;48.984;8.394;2022-10-17T03:42:22;10.00;99.90
38866;DHT22;62686;48.984;8.394;2022-10-17T03:44:51;9.90;99.90
38866;DHT22;62686;48.984;8.394;2022-10-17T03:47:19;9.90;99.90
38866;DHT22;62686;48.984;8.394;2022-10-17T03:49:47;9.90;99.90
38866;DHT22;62686;48.984;8.394;2022-10-17T03:52:15;9.80;99.90
38866;DHT22;62686;48.984;8.394;2022-10-17T03:54:43;9.80;99.90
38866;DHT22;62686;48.984;8.394;2022-10-17T03:57:12;9.80;99.90
38866;DHT22;62686;48.984;8.394;2022-10-17T03:59:40;9.80;99.90
38866;DHT22;62686;48.984;8.394;2022-10-17T04:02:09;9.80;99.90
38866;DHT22;62686;48.984;8.394;2022-10-17T04:04:37;9.80;99.90
38866;DHT22;62686;48.984;8.394;2022-10-17T04:07:05;9.80;99.90
38866;DHT22;62686;48.984;8.394;2022-10-17T04:09:33;9.80;99.90
38866;DHT22;62686;48.984;8.394;2022-10-17T04:12:01;9.70;99.90
38866;DHT22;62686;48.984;8.394;2022-10-17T04:14:30;9.70;99.90
38866;DHT22;62686;48.984;8.394;2022-10-17T04:16:58;9.80;99.90
38866;DHT22;62686;48.984;8.394;2022-10-17T04:19:26;9.80;99.90
38866;DHT22;62686;48.984;8.394;2022-10-17T04:21:54;9.80;99.90
38866;DHT22;62686;48.984;8.394;2022-10-17T04:24:22;9.80;99.90
38866;DHT22;62686;48.984;8.394;2022-10-17T04:26:51;9.80;99.90
38866;DHT22;62686;48.984;8.394;2022-10-17T04:29:20;9.70;99.90
38866;DHT22;62686;48.984;8.394;2022-10-17T04:31:50;9.80;99.90
38866;DHT22;62686;48.984;8.394;2022-10-17T04:34:18;9.80;99.90
38866;DHT22;62686;48.984;8.394;2022-10-17T04:36:46;9.80;99.90
38866;DHT22;62686;48.984;8.394;2022-10-17T04:39:14;9.80;99.90
38866;DHT22;62686;48.984;8.394;2022-10-17T04:41:42;9.80;99.90
38866;DHT22;62686;48.984;8.394;2022-10-17T04:44:11;9.80;99.90
38866;DHT22;62686;48.984;8.394;2022-10-17T04:46:39;9.80;99.90
38866;DHT22;62686;48.984;8.394;2022-10-17T04:49:08;9.80;99.90
38866;DHT22;62686;48.984;8.394;2022-10-17T04:51:37;9.70;99.90
38866;DHT22;62686;48.984;8.394;2022-10-17T04:54:05;9.60;99.90
38866;DHT22;62686;48.984;8.394;2022-10-17T04:56:34;9.60;99.90
38866;DHT22;62686;48.984;8.394;2022-10-17T04:59:02;9.60;99.90
38866;DHT22;62686;48.984;8.394;2022-10-17T05:01:30;9.60;99.90
38866;DHT22;62686;48.984;8.394;2022-10-17T05:03:58;9.60;99.90
38866;DHT22;62686;48.984;8.394;2022-10-17T05:06:28;9.50;99.90
38866;DHT22;62686;48.984;8.394;2022-10-17T05:08:57;9.60;99.90
38866;DHT22;62686;48.984;8.394;2022-10-17T05:11:27;9.60;99.90
38866;DHT22;62686;48.984;8.394;2022-10-17T05:13:59;9.60;99.90
38866;DHT22;62686;48.984;8.394;2022-10-17T05:16:28;9.60;99.90
38866;DHT22;62686;48.984;8.394;2022-10-17T05:18:57;9.60;99.90
38866;DHT22;62686;48.984;8.394;2022-10-17T05:21:28;9.60;99.90
38866;DHT22;62686;48.984;8.394;2022-10-17T05:23:56;9.60;99.90
38866;DHT22;62686;48.984;8.394;2022-10-17T05:26:25;9.60;99.90
38866;DHT22;62686;48.984;8.394;2022-10-17T05:28:53;9.60;99.90
38866;DHT22;62686;48.984;8.394;2022-10-17T05:31:21;9.60;99.90
38866;DHT22;62686;48.984;8.394;2022-10-17T05:33:49;9.60;99.90
38866;DHT22;62686;48.984;8.394;2022-10-17T05:36:17;9.70;99.90
38866;DHT22;62686;48.984;8.394;2022-10-17T05:38:49;9.70;99.90
38866;DHT22;62686;48.984;8.394;2022-10-17T05:41:18;9.70;99.90
38866;DHT22;62686;48.984;8.394;2022-10-17T05:43:46;9.60;99.90
38866;DHT22;62686;48.984;8.394;2022-10-17T05:46:16;9.60;99.90
38866;DHT22;62686;48.984;8.394;2022-10-17T05:48:44;9.60;99.90
38866;DHT22;62686;48.984;8.394;2022-10-17T05:51:12;9.50;99.90
38866;DHT22;62686;48.984;8.394;2022-10-17T05:53:41;9.50;99.90
38866;DHT22;62686;48.984;8.394;2022-10-17T05:56:11;9.50;99.90
38866;DHT22;62686;48.984;8.394;2022-10-17T05:58:41;9.60;99.90
38866;DHT22;62686;48.984;8.394;2022-10-17T06:01:15;9.60;99.90
38866;DHT22;62686;48.984;8.394;2022-10-17T06:03:44;9.60;99.90
38866;DHT22;62686;48.984;8.394;2022-10-17T06:06:13;9.70;99.90
38866;DHT22;62686;48.984;8.394;2022-10-17T06:08:41;9.70;99.90
38866;DHT22;62686;48.984;8.394;2022-10-17T06:11:11;9.70;99.90
38866;DHT22;62686;48.984;8.394;2022-10-17T06:13:39;9.70;99.90
38866;DHT22;62686;48.984;8.394;2022-10-17T06:16:08;9.60;99.90
38866;DHT22;62686;48.984;8.394;2022-10-17T06:18:36;9.70;99.90
38866;DHT22;62686;48.984;8.394;2022-10-17T06:21:06;9.80;99.90
38866;DHT22;62686;48.984;8.394;2022-10-17T06:23:35;9.90;99.90
38866;DHT22;62686;48.984;8.394;2022-10-17T06:26:04;9.90;99.90
38866;DHT22;62686;48.984;8.394;2022-10-17T06:28:34;10.00;99.90
38866;DHT22;62686;48.984;8.394;2022-10-17T06:31:04;10.00;99.90
38866;DHT22;62686;48.984;8.394;2022-10-17T06:33:33;10.10;99.90
38866;DHT22;62686;48.984;8.394;2022-10-17T06:36:01;10.30;99.90
38866;DHT22;62686;48.984;8.394;2022-10-17T06:38:29;10.40;99.90
38866;DHT22;62686;48.984;8.394;2022-10-17T06:41:02;10.50;99.90
38866;DHT22;62686;48.984;8.394;2022-10-17T06:43:35;10.60;99.70
38866;DHT22;62686;48.984;8.394;2022-10-17T06:46:04;10.70;99.50
38866;DHT22;62686;48.984;8.394;2022-10-17T06:48:32;10.80;99.50
38866;DHT22;62686;48.984;8.394;2022-10-17T06:51:01;10.90;99.30
38866;DHT22;62686;48.984;8.394;2022-10-17T06:53:31;11.00;99.10
38866;DHT22;62686;48.984;8.394;2022-10-17T06:56:00;11.10;99.00
38866;DHT22;62686;48.984;8.394;2022-10-17T06:58:33;11.20;98.80
38866;DHT22;62686;48.984;8.394;2022-10-17T07:01:05;11.40;98.60
38866;DHT22;62686;48.984;8.394;2022-10-17T07:03:34;11.50;98.50
38866;DHT22;62686;48.984;8.394;2022-10-17T07:06:03;11.70;98.50
38866;DHT22;62686;48.984;8.394;2022-10-17T07:08:32;11.80;98.30
38866;DHT22;62686;48.984;8.394;2022-10-17T07:11:08;11.80;98.60
38866;DHT22;62686;48.984;8.394;2022-10-17T07:13:36;11.90;98.10
38866;DHT22;62686;48.984;8.394;2022-10-17T07:16:06;12.00;98.00
38866;DHT22;62686;48.984;8.394;2022-10-17T07:18:35;12.10;97.90
38866;DHT22;62686;48.984;8.394;2022-10-17T07:21:03;12.20;97.90
38866;DHT22;62686;48.984;8.394;2022-10-17T07:23:32;12.30;97.80
38866;DHT22;62686;48.984;8.394;2022-10-17T07:26:04;12.40;97.80
38866;DHT22;62686;48.984;8.394;2022-10-17T07:28:34;12.40;97.80
38866;DHT22;62686;48.984;8.394;2022-10-17T07:31:03;12.50;97.80
38866;DHT22;62686;48.984;8.394;2022-10-17T07:33:33;12.60;97.90
38866;DHT22;62686;48.984;8.394;2022-10-17T07:36:02;12.70;97.90
38866;DHT22;62686;48.984;8.394;2022-10-17T07:38:31;12.80;97.90
38866;DHT22;62686;48.984;8.394;2022-10-17T07:41:00;12.90;97.90
38866;DHT22;62686;48.984;8.394;2022-10-17T07:43:29;12.90;97.90
38866;DHT22;62686;48.984;8.394;2022-10-17T07:45:57;13.00;97.90
38866;DHT22;62686;48.984;8.394;2022-10-17T07:48:27;13.10;97.90
38866;DHT22;62686;48.984;8.394;2022-10-17T07:50:57;13.20;97.90
38866;DHT22;62686;48.984;8.394;2022-10-17T07:53:25;13.30;97.90
38866;DHT22;62686;48.984;8.394;2022-10-17T07:55:53;13.30;97.80
38866;DHT22;62686;48.984;8.394;2022-10-17T07:58:21;13.50;97.80
38866;DHT22;62686;48.984;8.394;2022-10-17T08:00:49;13.60;97.80
38866;DHT22;62686;48.984;8.394;2022-10-17T08:03:17;13.70;97.70
38866;DHT22;62686;48.984;8.394;2022-10-17T08:05:45;13.80;97.60
38866;DHT22;62686;48.984;8.394;2022-10-17T08:08:15;13.90;97.60
38866;DHT22;62686;48.984;8.394;2022-10-17T08:10:43;14.00;97.60
38866;DHT22;62686;48.984;8.394;2022-10-17T08:13:14;14.10;97.80
38866;DHT22;62686;48.984;8.394;2022-10-17T08:15:42;14.20;98.00
38866;DHT22;62686;48.984;8.394;2022-10-17T08:18:10;14.30;98.10
38866;DHT22;62686;48.984;8.394;2022-10-17T08:20:39;14.40;98.40
38866;DHT22;62686;48.984;8.394;2022-10-17T08:23:08;14.40;98.80
38866;DHT22;62686;48.984;8.394;2022-10-17T08:25:38;14.50;99.10
38866;DHT22;62686;48.984;8.394;2022-10-17T08:28:06;14.50;99.60
38866;DHT22;62686;48.984;8.394;2022-10-17T08:30:34;14.70;99.90
38866;DHT22;62686;48.984;8.394;2022-10-17T08:33:02;14.80;99.90
38866;DHT22;62686;48.984;8.394;2022-10-17T08:35:31;15.00;99.90
38866;DHT22;62686;48.984;8.394;2022-10-17T08:37:59;15.30;99.90
38866;DHT22;62686;48.984;8.394;2022-10-17T08:40:30;15.50;99.90
38866;DHT22;62686;48.984;8.394;2022-10-17T08:43:20;15.70;99.90
38866;DHT22;62686;48.984;8.394;2022-10-17T08:45:53;16.60;99.90
38866;DHT22;62686;48.984;8.394;2022-10-17T08:48:27;17.30;99.90
38866;DHT22;62686;48.984;8.394;2022-10-17T08:50:59;18.00;99.90
38866;DHT22;62686;48.984;8.394;2022-10-17T08:53:33;18.70;99.90
38866;DHT22;62686;48.984;8.394;2022-10-17T08:56:06;19.10;64.60
38866;DHT22;62686;48.984;8.394;2022-10-17T08:58:39;18.90;42.70
38866;DHT22;62686;48.984;8.394;2022-10-17T09:01:19;18.80;61.10
38866;DHT22;62686;48.984;8.394;2022-10-17T09:04:01;19.60;42.10
38866;DHT22;62686;48.984;8.394;2022-10-17T09:06:36;20.80;28.00
38866;DHT22;62686;48.984;8.394;2022-10-17T09:09:16;21.90;1.00
38866;DHT22;62686;48.984;8.394;2022-10-17T09:11:57;22.50;1.00
38866;DHT22;62686;48.984;8.394;2022-10-17T09:14:47;23.00;1.00
38866;DHT22;62686;48.984;8.394;2022-10-17T09:17:23;22.90;1.00
38866;DHT22;62686;48.984;8.394;2022-10-17T09:19:59;22.40;1.00
38866;DHT22;62686;48.984;8.394;2022-10-17T09:22:33;22.00;1.00
38866;DHT22;62686;48.984;8.394;2022-10-17T09:25:09;21.20;1.00
38866;DHT22;62686;48.984;8.394;2022-10-17T09:27:41;20.70;1.00
38866;DHT22;62686;48.984;8.394;2022-10-17T09:30:28;20.50;1.00
38866;DHT22;62686;48.984;8.394;2022-10-17T09:33:14;20.20;1.00
38866;DHT22;62686;48.984;8.394;2022-10-17T09:35:54;20.00;1.90
38866;DHT22;62686;48.984;8.394;2022-10-17T09:38:27;20.00;1.00
38866;DHT22;62686;48.984;8.394;2022-10-17T09:40:59;20.10;1.00
38866;DHT22;62686;48.984;8.394;2022-10-17T09:43:28;20.20;1.00
38866;DHT22;62686;48.984;8.394;2022-10-17T09:46:16;20.40;1.00
38866;DHT22;62686;48.984;8.394;2022-10-17T09:48:49;20.60;1.00
38866;DHT22;62686;48.984;8.394;2022-10-17T09:51:19;20.70;1.00
38866;DHT22;62686;48.984;8.394;2022-10-17T09:53:54;20.90;1.00
38866;DHT22;62686;48.984;8.394;2022-10-17T09:56:23;20.90;1.00
38866;DHT22;62686;48.984;8.394;2022-10-17T09:58:56;20.80;1.00
38866;DHT22;62686;48.984;8.394;2022-10-17T10:01:27;20.70;1.00
38866;DHT22;62686;48.984;8.394;2022-10-17T10:04:09;20.70;1.00
38866;DHT22;62686;48.984;8.394;2022-10-17T10:06:39;20.80;1.00
38866;DHT22;62686;48.984;8.394;2022-10-17T10:09:20;20.80;1.00
38866;DHT22;62686;48.984;8.394;2022-10-17T10:11:51;20.90;1.00
38866;DHT22;62686;48.984;8.394;2022-10-17T10:14:23;21.00;1.00
38866;DHT22;62686;48.984;8.394;2022-10-17T10:16:53;21.10;1.00
38866;DHT22;62686;48.984;8.394;2022-10-17T10:19:28;21.20;1.00
38866;DHT22;62686;48.984;8.394;2022-10-17T10:21:58;21.20;1.00
38866;DHT22;62686;48.984;8.394;2022-10-17T10:24:27;21.30;1.00
38866;DHT22;62686;48.984;8.394;2022-10-17T10:26:58;21.30;1.00
38866;DHT22;62686;48.984;8.394;2022-10-17T10:29:30;21.50;1.00
38866;DHT22;62686;48.984;8.394;2022-10-17T10:32:08;21.70;1.00
38866;DHT22;62686;48.984;8.394;2022-10-17T10:34:42;22.00;1.00
38866;DHT22;62686;48.984;8.394;2022-10-17T10:37:17;22.10;1.00
38866;DHT22;62686;48.984;8.394;2022-10-17T10:39:47;22.20;1.00
38866;DHT22;62686;48.984;8.394;2022-10-17T10:42:20;22.30;1.00
38866;DHT22;62686;48.984;8.394;2022-10-17T10:44:50;22.30;1.00
38866;DHT22;62686;48.984;8.394;2022-10-17T10:47:23;22.30;1.00
38866;DHT22;62686;48.984;8.394;2022-10-17T10:50:06;22.20;1.00
38866;DHT22;62686;48.984;8.394;2022-10-17T10:52:40;22.30;1.00
38866;DHT22;62686;48.984;8.394;2022-10-17T10:55:19;22.30;1.00
38866;DHT22;62686;48.984;8.394;2022-10-17T10:57:51;22.60;1.00
38866;DHT22;62686;48.984;8.394;2022-10-17T11:00:23;23.20;1.00
38866;DHT22;62686;48.984;8.394;2022-10-17T11:03:00;24.20;74.70
38866;DHT22;62686;48.984;8.394;2022-10-17T11:05:39;24.90;99.90
38866;DHT22;62686;48.984;8.394;2022-10-17T11:08:16;25.70;1.00
38866;DHT22;62686;48.984;8.394;2022-10-17T11:10:58;26.50;1.00
38866;DHT22;62686;48.984;8.394;2022-10-17T11:13:32;26.80;99.90
38866;DHT22;62686;48.984;8.394;2022-10-17T11:16:09;27.80;1.00
38866;DHT22;62686;48.984;8.394;2022-10-17T11:18:46;28.50;1.00
38866;DHT22;62686;48.984;8.394;2022-10-17T11:21:17;29.70;18.00
38866;DHT22;62686;48.984;8.394;2022-10-17T11:23:52;29.70;1.00
38866;DHT22;62686;48.984;8.394;2022-10-17T11:26:26;30.40;99.90
38866;DHT22;62686;48.984;8.394;2022-10-17T11:28:57;30.80;1.00
38866;DHT22;62686;48.984;8.394;2022-10-17T11:31:30;31.80;99.90
38866;DHT22;62686;48.984;8.394;2022-10-17T11:34:04;32.00;1.00
38866;DHT22;62686;48.984;8.394;2022-10-17T11:36:35;32.00;35.70
38866;DHT22;62686;48.984;8.394;2022-10-17T11:39:09;32.10;1.00
38866;DHT22;62686;48.984;8.394;2022-10-17T11:41:42;32.30;1.00
38866;DHT22;62686;48.984;8.394;2022-10-17T11:44:19;32.10;99.90
38866;DHT22;62686;48.984;8.394;2022-10-17T11:46:53;31.60;1.00
38866;DHT22;62686;48.984;8.394;2022-10-17T11:49:28;31.90;99.90
38866;DHT22;62686;48.984;8.394;2022-10-17T11:52:09;32.00;1.00
38866;DHT22;62686;48.984;8.394;2022-10-17T11:54:51;32.00;1.00
38866;DHT22;62686;48.984;8.394;2022-10-17T11:57:35;31.80;1.00
38866;DHT22;62686;48.984;8.394;2022-10-17T12:00:19;31.90;1.00
38866;DHT22;62686;48.984;8.394;2022-10-17T12:02:53;31.70;85.60
38866;DHT22;62686;48.984;8.394;2022-10-17T12:05:32;30.70;99.90
38866;DHT22;62686;48.984;8.394;2022-10-17T12:08:07;31.20;99.90
38866;DHT22;62686;48.984;8.394;2022-10-17T12:10:44;31.90;1.00
38866;DHT22;62686;48.984;8.394;2022-10-17T12:13:45;31.70;99.90
38866;DHT22;62686;48.984;8.394;2022-10-17T12:16:40;31.60;99.90
38866;DHT22;62686;48.984;8.394;2022-10-17T12:19:28;31.40;99.90
38866;DHT22;62686;48.984;8.394;2022-10-17T12:22:03;31.70;1.00
38866;DHT22;62686;48.984;8.394;2022-10-17T12:24:38;32.00;1.00
38866;DHT22;62686;48.984;8.394;2022-10-17T12:27:39;31.50;1.00
38866;DHT22;62686;48.984;8.394;2022-10-17T12:30:33;31.70;99.90
38866;DHT22;62686;48.984;8.394;2022-10-17T12:33:05;30.90;99.90
38866;DHT22;62686;48.984;8.394;2022-10-17T12:35:41;30.90;1.00
38866;DHT22;62686;48.984;8.394;2022-10-17T12:38:28;30.50;99.90
38866;DHT22;62686;48.984;8.394;2022-10-17T12:41:01;30.30;1.00
38866;DHT22;62686;48.984;8.394;2022-10-17T12:43:57;30.50;99.90
38866;DHT22;62686;48.984;8.394;2022-10-17T12:46:46;31.00;1.00
38866;DHT22;62686;48.984;8.394;2022-10-17T12:49:40;31.40;1.00
38866;DHT22;62686;48.984;8.394;2022-10-17T12:52:20;31.40;1.00
38866;DHT22;62686;48.984;8.394;2022-10-17T12:55:04;31.70;1.00
38866;DHT22;62686;48.984;8.394;2022-10-17T12:57:41;31.30;99.90
38866;DHT22;62686;48.984;8.394;2022-10-17T13:00:17;31.80;99.90
38866;DHT22;62686;48.984;8.394;2022-10-17T13:02:54;32.10;62.70
38866;DHT22;62686;48.984;8.394;2022-10-17T13:05:28;32.80;6.40
38866;DHT22;62686;48.984;8.394;2022-10-17T13:08:00;33.10;1.00
38866;DHT22;62686;48.984;8.394;2022-10-17T13:10:33;33.10;1.00
38866;DHT22;62686;48.984;8.394;2022-10-17T13:13:09;32.70;1.00
38866;DHT22;62686;48.984;8.394;2022-10-17T13:15:45;32.60;1.00
38866;DHT22;62686;48.984;8.394;2022-10-17T13:18:19;32.60;91.50
38866;DHT22;62686;48.984;8.394;2022-10-17T13:20:55;32.50;1.00
38866;DHT22;62686;48.984;8.394;2022-10-17T13:23:27;32.50;40.30
38866;DHT22;62686;48.984;8.394;2022-10-17T13:26:15;32.60;99.90
38866;DHT22;62686;48.984;8.394;2022-10-17T13:28:57;32.60;10.80
38866;DHT22;62686;48.984;8.394;2022-10-17T13:31:29;32.70;1.00
38866;DHT22;62686;48.984;8.394;2022-10-17T13:33:59;32.70;1.00
38866;DHT22;62686;48.984;8.394;2022-10-17T13:36:28;32.80;1.00
38866;DHT22;62686;48.984;8.394;2022-10-17T13:38:58;33.00;1.00
38866;DHT22;62686;48.984;8.394;2022-10-17T13:41:29;32.90;1.00
38866;DHT22;62686;48.984;8.394;2022-10-17T13:44:03;33.00;1.00
38866;DHT22;62686;48.984;8.394;2022-10-17T13:46:34;33.00;1.00
38866;DHT22;62686;48.984;8.394;2022-10-17T13:49:10;32.90;1.00
38866;DHT22;62686;48.984;8.394;2022-10-17T13:51:42;32.70;1.00
38866;DHT22;62686;48.984;8.394;2022-10-17T13:54:36;33.00;1.00
38866;DHT22;62686;48.984;8.394;2022-10-17T13:57:17;32.50;1.00
38866;DHT22;62686;48.984;8.394;2022-10-17T13:59:48;31.90;1.00
38866;DHT22;62686;48.984;8.394;2022-10-17T14:02:20;31.70;99.90
38866;DHT22;62686;48.984;8.394;2022-10-17T14:04:59;30.80;99.90
38866;DHT22;62686;48.984;8.394;2022-10-17T14:07:49;30.40;99.90
38866;DHT22;62686;48.984;8.394;2022-10-17T14:10:36;29.90;1.00
38866;DHT22;62686;48.984;8.394;2022-10-17T14:13:13;29.20;99.90
38866;DHT22;62686;48.984;8.394;2022-10-17T14:15:45;28.60;99.90
38866;DHT22;62686;48.984;8.394;2022-10-17T14:18:18;28.90;99.90
38866;DHT22;62686;48.984;8.394;2022-10-17T14:20:48;29.30;1.00
38866;DHT22;62686;48.984;8.394;2022-10-17T14:23:38;29.00;1.00
38866;DHT22;62686;48.984;8.394;2022-10-17T14:26:13;28.50;1.00
38866;DHT22;62686;48.984;8.394;2022-10-17T14:28:44;27.80;99.90
38866;DHT22;62686;48.984;8.394;2022-10-17T14:31:27;27.10;99.90
38866;DHT22;62686;48.984;8.394;2022-10-17T14:33:56;26.30;1.00
38866;DHT22;62686;48.984;8.394;2022-10-17T14:36:33;25.70;1.00
38866;DHT22;62686;48.984;8.394;2022-10-17T14:39:04;25.20;1.00
38866;DHT22;62686;48.984;8.394;2022-10-17T14:41:36;24.80;1.00
38866;DHT22;62686;48.984;8.394;2022-10-17T14:44:18;24.50;1.00
38866;DHT22;62686;48.984;8.394;2022-10-17T14:46:50;24.20;1.00
38866;DHT22;62686;48.984;8.394;2022-10-17T14:49:24;23.90;1.00
38866;DHT22;62686;48.984;8.394;2022-10-17T14:52:24;23.70;1.00
38866;DHT22;62686;48.984;8.394;2022-10-17T14:54:53;23.50;99.90
38866;DHT22;62686;48.984;8.394;2022-10-17T14:57:28;23.40;99.90
38866;DHT22;62686;48.984;8.394;2022-10-17T14:59:57;23.20;99.90
38866;DHT22;62686;48.984;8.394;2022-10-17T15:02:27;23.10;99.90
38866;DHT22;62686;48.984;8.394;2022-10-17T15:04:55;22.90;99.90
38866;DHT22;62686;48.984;8.394;2022-10-17T15:07:24;22.70;99.90
38866;DHT22;62686;48.984;8.394;2022-10-17T15:09:52;22.60;99.90
38866;DHT22;62686;48.984;8.394;2022-10-17T15:12:22;22.50;99.90
38866;DHT22;62686;48.984;8.394;2022-10-17T15:14:51;22.40;1.00
38866;DHT22;62686;48.984;8.394;2022-10-17T15:17:23;22.30;1.00
38866;DHT22;62686;48.984;8.394;2022-10-17T15:19:51;22.20;1.00
38866;DHT22;62686;48.984;8.394;2022-10-17T15:22:19;22.10;1.00
38866;DHT22;62686;48.984;8.394;2022-10-17T15:24:48;22.00;1.00
38866;DHT22;62686;48.984;8.394;2022-10-17T15:27:20;22.00;1.00
38866;DHT22;62686;48.984;8.394;2022-10-17T15:29:49;22.10;1.00
38866;DHT22;62686;48.984;8.394;2022-10-17T15:32:18;22.10;1.00
38866;DHT22;62686;48.984;8.394;2022-10-17T15:34:48;22.00;1.00
38866;DHT22;62686;48.984;8.394;2022-10-17T15:37:19;21.80;1.00
38866;DHT22;62686;48.984;8.394;2022-10-17T15:39:49;21.90;1.00
38866;DHT22;62686;48.984;8.394;2022-10-17T15:42:19;21.70;1.00
38866;DHT22;62686;48.984;8.394;2022-10-17T15:44:47;21.50;1.00
38866;DHT22;62686;48.984;8.394;2022-10-17T15:47:23;21.30;1.00
38866;DHT22;62686;48.984;8.394;2022-10-17T15:49:53;21.20;1.00
38866;DHT22;62686;48.984;8.394;2022-10-17T15:52:23;21.00;1.00
38866;DHT22;62686;48.984;8.394;2022-10-17T15:54:51;20.80;1.00
38866;DHT22;62686;48.984;8.394;2022-10-17T15:57:21;20.70;1.00
38866;DHT22;62686;48.984;8.394;2022-10-17T15:59:51;20.50;1.00
38866;DHT22;62686;48.984;8.394;2022-10-17T16:02:21;20.20;1.00
38866;DHT22;62686;48.984;8.394;2022-10-17T16:04:50;20.10;1.00
38866;DHT22;62686;48.984;8.394;2022-10-17T16:07:19;19.80;1.00
38866;DHT22;62686;48.984;8.394;2022-10-17T16:09:48;19.60;1.00
38866;DHT22;62686;48.984;8.394;2022-10-17T16:12:18;19.40;1.00
38866;DHT22;62686;48.984;8.394;2022-10-17T16:14:53;19.10;1.00
38866;DHT22;62686;48.984;8.394;2022-10-17T16:17:22;18.90;4.70